Kanawha, Iowa
Current Conditions -  °F | °C
As of 11:55 AM on Saturday 20 Dec 2014 (Local Time) from KCAV Reporting Station
Overcast Overcast  
Wind Chill: 26°   Ceiling: 1600
Heat Index: 32°   Visibility: 9mi
Dew Point: 32°   Wind: 7mph
Humidity: 100%   Direction: 170°S
Pressure: 30.14"   Gusts: NA
Location:  42.94°N, 93.79°W
Report Text: KCAV 201755Z AUTO 17006KT 9SM OVC016 M00/M00 A3014 RMK AO2
Loading
Personal Weather Stations






























Interactive Weather Map New forecast layout! Learn more

10-Day Weather Forecast

Advertisements
Track Severe Weather on mobile